createdAt,value
2023-03-19T00:00:33.143Z,3.75
2023-03-19T00:03:01.120Z,3.80
2023-03-19T00:05:29.091Z,3.90
2023-03-19T00:07:56.992Z,3.90
2023-03-19T00:10:25.018Z,3.70
2023-03-19T00:12:52.901Z,3.97
2023-03-19T00:15:22.248Z,3.50
2023-03-19T00:17:50.117Z,3.88
2023-03-19T00:20:19.899Z,3.67
2023-03-19T00:22:47.857Z,3.70
2023-03-19T00:25:16.122Z,3.60
2023-03-19T00:27:44.534Z,3.67
2023-03-19T00:30:13.754Z,3.60
2023-03-19T00:32:43.028Z,3.45
2023-03-19T00:35:11.877Z,3.30
2023-03-19T00:37:40.136Z,3.20
2023-03-19T00:40:10.221Z,3.22
2023-03-19T00:42:38.233Z,3.65
2023-03-19T00:45:07.078Z,3.33
2023-03-19T00:47:34.969Z,3.10
2023-03-19T00:50:04.665Z,2.60
2023-03-19T00:52:33.445Z,2.83
2023-03-19T00:55:01.730Z,3.20
2023-03-19T00:57:30.391Z,2.70
2023-03-19T00:59:58.311Z,3.45
2023-03-19T01:02:26.590Z,2.97
2023-03-19T01:04:54.692Z,3.00
2023-03-19T01:07:24.289Z,2.95
2023-03-19T01:09:52.708Z,3.05
2023-03-19T01:12:21.233Z,3.25
2023-03-19T01:14:49.171Z,2.78
2023-03-19T01:17:17.107Z,2.90
2023-03-19T01:19:45.022Z,2.88
2023-03-19T01:22:13.013Z,2.55
2023-03-19T01:24:42.696Z,2.80
2023-03-19T01:27:10.795Z,2.80
2023-03-19T01:29:39.260Z,2.97
2023-03-19T01:32:07.501Z,2.42
2023-03-19T01:34:35.571Z,2.70
2023-03-19T01:37:03.580Z,2.30
2023-03-19T01:39:31.849Z,2.25
2023-03-19T01:42:03.860Z,2.45
2023-03-19T01:44:33.709Z,2.80
2023-03-19T01:47:05.777Z,2.50
2023-03-19T01:49:34.403Z,2.88
2023-03-19T01:52:04.917Z,2.30
2023-03-19T01:54:34.859Z,2.53
2023-03-19T01:57:09.683Z,2.60
2023-03-19T01:59:39.995Z,2.70
2023-03-19T02:02:15.469Z,2.40
2023-03-19T02:04:46.798Z,2.47
2023-03-19T02:07:15.688Z,2.33
2023-03-19T02:09:44.069Z,2.30
2023-03-19T02:12:14.686Z,2.47
2023-03-19T02:14:42.783Z,2.35
2023-03-19T02:17:11.842Z,2.20
2023-03-19T02:19:47.234Z,2.60
2023-03-19T02:22:17.666Z,2.10
2023-03-19T02:24:52.496Z,2.20
2023-03-19T02:27:21.983Z,2.22
2023-03-19T02:29:49.950Z,2.25
2023-03-19T02:32:18.488Z,2.40
2023-03-19T02:34:46.814Z,2.33
2023-03-19T02:37:18.604Z,1.98
2023-03-19T02:39:55.040Z,2.50
2023-03-19T02:42:26.947Z,2.30
2023-03-19T02:44:54.911Z,2.40
2023-03-19T02:47:23.209Z,2.30
2023-03-19T02:49:51.902Z,2.38
2023-03-19T02:52:20.225Z,2.30
2023-03-19T02:54:48.843Z,2.35
2023-03-19T02:57:17.236Z,2.08
2023-03-19T02:59:46.486Z,2.33
2023-03-19T03:02:15.236Z,2.33
2023-03-19T03:04:43.277Z,2.30
2023-03-19T03:07:11.474Z,2.20
2023-03-19T03:09:39.665Z,2.30
2023-03-19T03:12:08.411Z,2.38
2023-03-19T03:14:38.353Z,2.00
2023-03-19T03:17:08.920Z,2.78
2023-03-19T03:19:37.076Z,2.30
2023-03-19T03:22:05.594Z,2.28
2023-03-19T03:24:33.542Z,2.33
2023-03-19T03:27:01.583Z,2.45
2023-03-19T03:29:29.644Z,2.20
2023-03-19T03:31:57.540Z,2.65
2023-03-19T03:34:26.846Z,2.10
2023-03-19T03:36:54.716Z,2.20
2023-03-19T03:39:22.627Z,2.17
2023-03-19T03:41:50.542Z,2.40
2023-03-19T03:44:18.374Z,2.20
2023-03-19T03:46:46.727Z,2.45
2023-03-19T03:49:14.627Z,2.20
2023-03-19T03:51:43.864Z,2.58
2023-03-19T03:54:11.870Z,2.38
2023-03-19T03:56:39.836Z,2.40
2023-03-19T03:59:09.455Z,2.20
2023-03-19T04:01:37.427Z,2.42
2023-03-19T04:04:05.361Z,2.20
2023-03-19T04:06:33.367Z,2.25
2023-03-19T04:09:02.973Z,2.05
2023-03-19T04:11:30.868Z,2.33
2023-03-19T04:13:58.991Z,2.05
2023-03-19T04:16:28.612Z,2.42
2023-03-19T04:18:56.655Z,2.50
2023-03-19T04:21:24.563Z,2.10
2023-03-19T04:23:52.614Z,2.17
2023-03-19T04:26:22.313Z,2.05
2023-03-19T04:28:50.177Z,2.20
2023-03-19T04:31:18.132Z,2.50
2023-03-19T04:33:46.188Z,1.98
2023-03-19T04:36:14.076Z,2.35
2023-03-19T04:38:42.251Z,2.35
2023-03-19T04:41:10.781Z,2.10
2023-03-19T04:43:39.997Z,2.28
2023-03-19T04:46:08.055Z,2.13
2023-03-19T04:48:37.694Z,2.17
2023-03-19T04:51:08.560Z,2.30
2023-03-19T04:53:36.834Z,2.10
2023-03-19T04:56:05.210Z,1.85
2023-03-19T04:58:33.069Z,1.80
2023-03-19T05:01:02.499Z,2.03
2023-03-19T05:03:31.099Z,2.15
2023-03-19T05:05:59.097Z,2.20
2023-03-19T05:08:27.863Z,2.10
2023-03-19T05:10:55.787Z,2.28
2023-03-19T05:13:23.932Z,2.40
2023-03-19T05:15:55.311Z,2.17
2023-03-19T05:18:24.880Z,2.03
2023-03-19T05:20:53.233Z,2.00
2023-03-19T05:23:21.066Z,1.75
2023-03-19T05:25:49.593Z,2.00
2023-03-19T05:28:17.571Z,2.05
2023-03-19T05:30:45.544Z,2.03
2023-03-19T05:33:13.498Z,2.10
2023-03-19T05:35:43.114Z,1.88
2023-03-19T05:38:11.766Z,2.00
2023-03-19T05:40:41.896Z,2.20
2023-03-19T05:43:10.435Z,2.20
2023-03-19T05:45:38.933Z,2.03
2023-03-19T05:48:07.224Z,1.88
2023-03-19T05:50:35.630Z,2.15
2023-03-19T05:53:05.338Z,1.83
2023-03-19T05:55:33.242Z,2.22
2023-03-19T05:58:01.460Z,2.17
2023-03-19T06:00:29.292Z,2.30
2023-03-19T06:02:57.195Z,2.00
2023-03-19T06:05:25.146Z,1.95
2023-03-19T06:07:53.301Z,2.10
2023-03-19T06:10:22.684Z,2.13
2023-03-19T06:12:51.474Z,1.80
2023-03-19T06:15:19.375Z,1.95
2023-03-19T06:17:47.536Z,2.00
2023-03-19T06:20:15.845Z,2.00
2023-03-19T06:22:43.713Z,1.90
2023-03-19T06:25:12.102Z,2.20
2023-03-19T06:27:41.325Z,2.00
2023-03-19T06:30:10.803Z,2.03
2023-03-19T06:32:38.744Z,1.90
2023-03-19T06:35:08.578Z,1.80
2023-03-19T06:37:36.438Z,2.13
2023-03-19T06:40:04.939Z,1.80
2023-03-19T06:42:32.821Z,1.60
2023-03-19T06:45:02.479Z,2.13
2023-03-19T06:47:30.541Z,1.60
2023-03-19T06:49:58.598Z,1.95
2023-03-19T06:52:27.102Z,1.70
2023-03-19T06:54:54.925Z,1.80
2023-03-19T06:57:23.084Z,1.80
2023-03-19T06:59:51.670Z,1.77
2023-03-19T07:02:20.850Z,2.00
2023-03-19T07:04:48.828Z,1.50
2023-03-19T07:07:16.600Z,1.70
2023-03-19T07:09:44.480Z,1.80
2023-03-19T07:12:12.600Z,1.90
2023-03-19T07:14:40.748Z,2.00
2023-03-19T07:17:10.371Z,1.67
2023-03-19T07:19:39.688Z,1.50
2023-03-19T07:22:07.554Z,1.73
2023-03-19T07:24:35.456Z,2.05
2023-03-19T07:27:03.352Z,2.03
2023-03-19T07:29:31.203Z,1.65
2023-03-19T07:31:59.301Z,1.90
2023-03-19T07:34:27.346Z,2.00
2023-03-19T07:36:56.717Z,2.03
2023-03-19T07:39:24.602Z,2.30
2023-03-19T07:41:52.533Z,2.03
2023-03-19T07:44:20.538Z,2.03
2023-03-19T07:46:48.473Z,2.00
2023-03-19T07:49:16.399Z,2.30
2023-03-19T07:51:44.701Z,2.35
2023-03-19T07:54:13.889Z,1.75
2023-03-19T07:56:41.743Z,2.03
2023-03-19T07:59:09.703Z,2.08
2023-03-19T08:01:37.657Z,2.40
2023-03-19T08:04:05.577Z,2.10
2023-03-19T08:06:33.545Z,2.30
2023-03-19T08:09:01.448Z,2.05
2023-03-19T08:11:31.035Z,2.20
2023-03-19T08:13:58.926Z,2.22
2023-03-19T08:16:27.070Z,2.00
2023-03-19T08:18:54.912Z,2.17
2023-03-19T08:21:22.720Z,2.35
2023-03-19T08:23:50.909Z,2.03
2023-03-19T08:26:18.735Z,2.25
2023-03-19T08:28:47.948Z,2.60
2023-03-19T08:31:16.284Z,1.95
2023-03-19T08:33:44.179Z,2.15
2023-03-19T08:36:13.969Z,1.95
2023-03-19T08:38:42.531Z,2.22
2023-03-19T08:41:11.005Z,2.35
2023-03-19T08:43:39.424Z,2.38
2023-03-19T08:46:08.641Z,2.15
2023-03-19T08:48:36.504Z,2.03
2023-03-19T08:51:05.082Z,2.20
2023-03-19T08:53:34.088Z,1.98
2023-03-19T08:56:03.957Z,2.30
2023-03-19T08:58:32.062Z,2.20
2023-03-19T09:01:03.644Z,2.10
2023-03-19T09:03:33.143Z,2.00
2023-03-19T09:06:01.967Z,2.00
2023-03-19T09:08:30.890Z,2.00
2023-03-19T09:10:59.201Z,1.90
2023-03-19T09:13:27.537Z,2.05
2023-03-19T09:15:55.863Z,2.10
2023-03-19T09:18:25.440Z,2.25
2023-03-19T09:20:55.285Z,2.00
2023-03-19T09:23:23.264Z,2.25
2023-03-19T09:25:51.569Z,2.00
2023-03-19T09:28:19.943Z,2.00
2023-03-19T09:30:49.125Z,1.98
2023-03-19T09:33:17.895Z,2.22
2023-03-19T09:35:51.356Z,2.22
2023-03-19T09:38:21.035Z,1.80
2023-03-19T09:40:53.214Z,2.22
2023-03-19T09:43:38.597Z,1.90
2023-03-19T09:46:12.774Z,1.92
2023-03-19T09:48:49.094Z,1.90
2023-03-19T09:51:22.594Z,2.00
2023-03-19T09:53:57.391Z,2.10
2023-03-19T09:56:27.887Z,2.03
2023-03-19T09:58:55.903Z,1.75
2023-03-19T10:01:29.598Z,1.90
2023-03-19T10:04:17.385Z,1.95
2023-03-19T10:06:45.332Z,2.10
2023-03-19T10:09:45.593Z,1.80
2023-03-19T10:12:31.071Z,1.73
2023-03-19T10:15:13.661Z,2.03
2023-03-19T10:17:48.696Z,2.00
2023-03-19T10:20:23.764Z,1.67
2023-03-19T10:22:56.351Z,1.83
2023-03-19T10:25:28.199Z,1.77
2023-03-19T10:28:01.365Z,1.90
2023-03-19T10:30:33.523Z,2.13
2023-03-19T10:33:09.137Z,2.55
2023-03-19T10:35:42.648Z,2.53
2023-03-19T10:38:20.813Z,3.17
2023-03-19T10:41:04.329Z,2.92
2023-03-19T10:43:34.805Z,2.97
2023-03-19T10:46:02.939Z,3.15
2023-03-19T10:48:30.729Z,3.08
2023-03-19T10:51:01.164Z,2.90
2023-03-19T10:53:33.546Z,3.20
2023-03-19T10:56:05.504Z,3.05
2023-03-19T10:58:35.506Z,2.35
2023-03-19T11:01:06.996Z,2.40
2023-03-19T11:03:37.813Z,2.13
2023-03-19T11:06:08.831Z,2.40
2023-03-19T11:08:38.745Z,2.20
2023-03-19T11:11:08.317Z,1.70
2023-03-19T11:13:36.838Z,1.85
2023-03-19T11:16:05.782Z,1.77
2023-03-19T11:18:39.827Z,1.88
2023-03-19T11:21:10.222Z,1.90
2023-03-19T11:23:40.949Z,1.98
2023-03-19T11:26:10.739Z,2.03
2023-03-19T11:28:39.397Z,2.03
2023-03-19T11:31:14.468Z,1.70
2023-03-19T11:33:57.161Z,2.08
2023-03-19T11:36:29.927Z,1.85
2023-03-19T11:39:09.416Z,1.80
2023-03-19T11:41:50.681Z,2.10
2023-03-19T11:44:22.416Z,1.60
2023-03-19T11:46:59.443Z,1.73
2023-03-19T11:49:50.783Z,2.10
2023-03-19T11:52:26.440Z,1.85
2023-03-19T11:55:16.068Z,2.00
2023-03-19T11:57:59.025Z,2.45
2023-03-19T12:00:36.424Z,2.20
2023-03-19T12:03:28.621Z,2.85
2023-03-19T12:06:01.012Z,2.58
2023-03-19T12:08:36.148Z,3.05
2023-03-19T12:11:15.137Z,2.70
2023-03-19T12:13:53.938Z,2.53
2023-03-19T12:16:29.245Z,2.40
2023-03-19T12:19:19.216Z,2.30
2023-03-19T12:21:58.532Z,2.40
2023-03-19T12:24:39.514Z,2.60
2023-03-19T12:27:19.480Z,2.80
2023-03-19T12:29:55.419Z,2.63
2023-03-19T12:32:43.878Z,2.50
2023-03-19T12:35:16.360Z,2.63
2023-03-19T12:37:52.106Z,2.40
2023-03-19T12:40:28.342Z,2.35
2023-03-19T12:43:00.060Z,2.05
2023-03-19T12:45:35.081Z,2.60
2023-03-19T12:48:09.581Z,2.28
2023-03-19T12:50:40.617Z,3.10
2023-03-19T12:53:14.184Z,3.03
2023-03-19T12:55:46.786Z,2.80
2023-03-19T12:58:24.736Z,2.95
2023-03-19T13:01:01.165Z,2.90
2023-03-19T13:03:34.804Z,3.05
2023-03-19T13:06:08.428Z,2.92
2023-03-19T13:08:40.708Z,2.85
2023-03-19T13:11:14.007Z,2.40
2023-03-19T13:13:46.545Z,2.78
2023-03-19T13:16:31.725Z,2.80
2023-03-19T13:19:07.493Z,3.17
2023-03-19T13:21:38.687Z,2.67
2023-03-19T13:24:15.432Z,2.70
2023-03-19T13:26:45.140Z,2.47
2023-03-19T13:29:20.579Z,2.63
2023-03-19T13:31:51.853Z,3.00
2023-03-19T13:34:25.042Z,2.60
2023-03-19T13:36:56.735Z,2.95
2023-03-19T13:39:28.527Z,2.58
2023-03-19T13:42:22.516Z,2.83
2023-03-19T13:44:52.385Z,2.60
2023-03-19T13:47:42.377Z,2.10
2023-03-19T13:50:30.095Z,2.00
2023-03-19T13:53:23.032Z,2.00
2023-03-19T13:55:55.586Z,2.65
2023-03-19T13:58:43.033Z,1.98
2023-03-19T14:01:12.856Z,2.28
2023-03-19T14:03:55.990Z,2.85
2023-03-19T14:06:37.024Z,2.30
2023-03-19T14:09:06.734Z,2.20
2023-03-19T14:11:37.455Z,2.40
2023-03-19T14:14:07.857Z,2.70
2023-03-19T14:16:38.172Z,3.30
2023-03-19T14:19:17.677Z,3.22
2023-03-19T14:22:06.997Z,2.60
2023-03-19T14:24:55.764Z,2.75
2023-03-19T14:27:30.430Z,3.90
2023-03-19T14:30:03.096Z,2.88
2023-03-19T14:32:40.592Z,3.30
2023-03-19T14:35:16.868Z,3.08
2023-03-19T14:37:48.929Z,3.17
2023-03-19T14:40:20.023Z,2.67
2023-03-19T14:42:59.221Z,2.90
2023-03-19T14:45:49.315Z,2.72
2023-03-19T14:48:25.126Z,2.63
2023-03-19T14:51:20.239Z,3.03
2023-03-19T14:53:52.927Z,2.63
2023-03-19T14:56:24.878Z,2.53
2023-03-19T14:58:54.993Z,2.10
2023-03-19T15:01:24.727Z,2.60
2023-03-19T15:03:57.916Z,2.33
2023-03-19T15:06:32.320Z,2.65
2023-03-19T15:09:02.201Z,2.60
2023-03-19T15:12:00.459Z,2.67
2023-03-19T15:14:43.280Z,2.65
2023-03-19T15:17:19.063Z,2.78
2023-03-19T15:19:46.959Z,2.30
2023-03-19T15:22:20.549Z,2.30
2023-03-19T15:24:49.159Z,1.90
2023-03-19T15:27:22.689Z,1.40
2023-03-19T15:29:51.721Z,1.40
2023-03-19T15:32:52.282Z,1.90
2023-03-19T15:35:27.297Z,1.70
2023-03-19T15:38:00.720Z,1.75
2023-03-19T15:40:30.541Z,1.42
2023-03-19T15:43:02.158Z,1.42
2023-03-19T15:45:32.252Z,1.20
2023-03-19T15:48:05.991Z,1.30
2023-03-19T15:50:37.203Z,1.30
2023-03-19T15:53:10.598Z,1.40
2023-03-19T15:55:39.072Z,1.55
2023-03-19T15:58:10.972Z,1.40
2023-03-19T16:00:41.197Z,1.27
2023-03-19T16:03:16.999Z,1.35
2023-03-19T16:05:44.972Z,1.20
2023-03-19T16:08:20.899Z,1.30
2023-03-19T16:10:49.292Z,1.20
2023-03-19T16:13:28.706Z,1.35
2023-03-19T16:16:01.531Z,1.27
2023-03-19T16:18:31.926Z,1.25
2023-03-19T16:21:08.010Z,1.30
2023-03-19T16:23:39.411Z,1.45
2023-03-19T16:26:17.892Z,1.52
2023-03-19T16:28:49.825Z,1.38
2023-03-19T16:31:23.353Z,1.50
2023-03-19T16:33:53.193Z,1.35
2023-03-19T16:36:22.182Z,1.40
2023-03-19T16:39:23.031Z,1.50
2023-03-19T16:42:16.071Z,1.40
2023-03-19T16:44:47.761Z,1.65
2023-03-19T16:47:16.680Z,1.58
2023-03-19T16:49:44.477Z,1.50
2023-03-19T16:52:16.763Z,1.25
2023-03-19T16:54:53.667Z,1.30
2023-03-19T16:57:22.158Z,1.27
2023-03-19T16:59:49.998Z,1.50
2023-03-19T17:02:19.056Z,1.35
2023-03-19T17:04:47.471Z,1.55
2023-03-19T17:07:15.343Z,1.13
2023-03-19T17:09:43.173Z,1.20
2023-03-19T17:12:17.037Z,1.20
2023-03-19T17:14:44.984Z,1.23
2023-03-19T17:17:19.271Z,1.25
2023-03-19T17:19:47.773Z,1.38
2023-03-19T17:22:15.609Z,1.30
2023-03-19T17:24:43.656Z,1.10
2023-03-19T17:27:13.087Z,1.45
2023-03-19T17:29:41.010Z,1.42
2023-03-19T17:32:18.705Z,1.40
2023-03-19T17:34:46.714Z,1.50
2023-03-19T17:37:15.383Z,1.38
2023-03-19T17:39:45.675Z,1.50
2023-03-19T17:42:19.966Z,1.52
2023-03-19T17:44:50.043Z,1.85
2023-03-19T17:47:19.374Z,1.75
2023-03-19T17:49:47.615Z,1.50
2023-03-19T17:52:17.620Z,1.70
2023-03-19T17:54:46.157Z,1.70
2023-03-19T17:57:15.903Z,1.60
2023-03-19T17:59:45.261Z,1.50
2023-03-19T18:02:25.768Z,1.73
2023-03-19T18:04:53.997Z,1.52
2023-03-19T18:07:21.874Z,1.63
2023-03-19T18:09:49.944Z,1.70
2023-03-19T18:12:17.971Z,1.70
2023-03-19T18:14:47.333Z,1.73
2023-03-19T18:17:17.631Z,1.15
2023-03-19T18:19:47.504Z,1.80
2023-03-19T18:22:16.785Z,1.30
2023-03-19T18:24:45.232Z,1.33
2023-03-19T18:27:14.172Z,1.30
2023-03-19T18:29:42.542Z,1.58
2023-03-19T18:32:16.594Z,1.48
2023-03-19T18:34:44.996Z,1.50
2023-03-19T18:37:17.203Z,1.38
2023-03-19T18:39:45.241Z,1.30
2023-03-19T18:42:14.538Z,1.55
2023-03-19T18:44:43.166Z,1.70
2023-03-19T18:47:15.771Z,1.80
2023-03-19T18:49:44.627Z,1.80
2023-03-19T18:52:18.494Z,1.80
2023-03-19T18:54:47.043Z,1.75
2023-03-19T18:57:16.414Z,1.90
2023-03-19T18:59:44.557Z,2.10
2023-03-19T19:02:34.169Z,1.70
2023-03-19T19:05:02.319Z,2.03
2023-03-19T19:07:31.186Z,2.00
2023-03-19T19:09:59.526Z,2.30
2023-03-19T19:12:28.265Z,2.40
2023-03-19T19:15:01.603Z,1.70
2023-03-19T19:17:31.371Z,1.63
2023-03-19T19:20:00.925Z,1.80
2023-03-19T19:22:29.816Z,1.90
2023-03-19T19:24:57.818Z,1.58
2023-03-19T19:27:27.888Z,2.00
2023-03-19T19:29:56.375Z,1.92
2023-03-19T19:32:26.465Z,2.20
2023-03-19T19:34:54.809Z,1.88
2023-03-19T19:37:25.819Z,1.90
2023-03-19T19:39:54.019Z,1.88
2023-03-19T19:42:25.614Z,2.03
2023-03-19T19:44:57.347Z,1.80
2023-03-19T19:47:25.338Z,1.70
2023-03-19T19:49:53.292Z,1.90
2023-03-19T19:52:23.015Z,1.83
2023-03-19T19:54:52.048Z,1.80
2023-03-19T19:57:22.478Z,1.52
2023-03-19T19:59:51.522Z,1.80
2023-03-19T20:02:21.892Z,1.85
2023-03-19T20:04:50.068Z,2.03
2023-03-19T20:07:18.002Z,1.80
2023-03-19T20:09:47.702Z,2.20
2023-03-19T20:12:23.396Z,1.90
2023-03-19T20:14:51.990Z,1.63
2023-03-19T20:17:21.827Z,1.80
2023-03-19T20:19:49.796Z,1.77
2023-03-19T20:22:18.131Z,1.80
2023-03-19T20:24:50.394Z,1.90
2023-03-19T20:27:22.162Z,2.03
2023-03-19T20:29:51.165Z,1.90
2023-03-19T20:32:28.749Z,1.70
2023-03-19T20:34:56.628Z,1.90
2023-03-19T20:37:24.556Z,2.03
2023-03-19T20:39:53.936Z,1.83
2023-03-19T20:42:21.998Z,1.73
2023-03-19T20:44:50.400Z,2.00
2023-03-19T20:47:20.549Z,1.90
2023-03-19T20:49:49.433Z,1.67
2023-03-19T20:52:17.463Z,1.77
2023-03-19T20:54:45.668Z,1.73
2023-03-19T20:57:17.587Z,1.73
2023-03-19T20:59:46.840Z,1.92
2023-03-19T21:02:17.090Z,2.17
2023-03-19T21:04:45.538Z,1.92
2023-03-19T21:07:28.745Z,1.90
2023-03-19T21:09:58.113Z,1.90
2023-03-19T21:12:29.440Z,1.90
2023-03-19T21:14:57.696Z,2.45
2023-03-19T21:17:27.277Z,1.90
2023-03-19T21:19:55.314Z,2.10
2023-03-19T21:22:26.962Z,2.00
2023-03-19T21:25:03.440Z,1.90
2023-03-19T21:27:34.850Z,1.85
2023-03-19T21:30:04.286Z,1.95
2023-03-19T21:32:32.279Z,2.03
2023-03-19T21:35:00.360Z,2.10
2023-03-19T21:37:28.254Z,2.15
2023-03-19T21:39:56.257Z,2.30
2023-03-19T21:42:24.363Z,2.17
2023-03-19T21:45:00.278Z,2.42
2023-03-19T21:47:28.150Z,2.53
2023-03-19T21:49:56.371Z,2.60
2023-03-19T21:52:24.186Z,2.50
2023-03-19T21:54:52.264Z,2.58
2023-03-19T21:57:20.171Z,2.47
2023-03-19T21:59:48.469Z,2.47
2023-03-19T22:02:43.117Z,2.95
2023-03-19T22:05:19.497Z,2.80
2023-03-19T22:07:47.379Z,2.60
2023-03-19T22:10:15.571Z,2.60
2023-03-19T22:12:44.277Z,2.70
2023-03-19T22:15:23.156Z,2.83
2023-03-19T22:17:52.455Z,2.67
2023-03-19T22:20:23.290Z,2.65
2023-03-19T22:22:51.215Z,2.60
2023-03-19T22:25:21.826Z,2.97
2023-03-19T22:27:51.320Z,2.75
2023-03-19T22:30:25.509Z,2.80
2023-03-19T22:32:56.990Z,2.88
2023-03-19T22:35:25.283Z,3.17
2023-03-19T22:37:53.058Z,3.22
2023-03-19T22:40:21.507Z,3.58
2023-03-19T22:42:50.612Z,2.75
2023-03-19T22:45:28.390Z,3.20
2023-03-19T22:47:58.940Z,3.17
2023-03-19T22:50:28.266Z,3.13
2023-03-19T22:52:56.788Z,2.67
2023-03-19T22:55:24.784Z,3.20
2023-03-19T22:57:52.554Z,3.13
2023-03-19T23:00:23.644Z,3.38
2023-03-19T23:02:58.694Z,3.03
2023-03-19T23:05:35.123Z,2.97
2023-03-19T23:08:06.023Z,2.80
2023-03-19T23:10:35.825Z,3.22
2023-03-19T23:13:03.664Z,2.92
2023-03-19T23:15:32.700Z,2.92
2023-03-19T23:18:03.499Z,2.75
2023-03-19T23:20:33.824Z,2.78
2023-03-19T23:23:02.118Z,3.22
2023-03-19T23:25:30.888Z,3.00
2023-03-19T23:28:00.897Z,3.28
2023-03-19T23:30:31.364Z,3.20
2023-03-19T23:33:01.892Z,3.08
2023-03-19T23:35:31.438Z,2.65
2023-03-19T23:37:59.485Z,3.13
2023-03-19T23:40:31.243Z,2.70
2023-03-19T23:43:01.210Z,3.13
2023-03-19T23:45:35.255Z,2.70
2023-03-19T23:48:07.114Z,2.80
2023-03-19T23:50:35.464Z,2.90
2023-03-19T23:53:03.363Z,2.80
2023-03-19T23:55:32.514Z,2.90
2023-03-19T23:58:02.403Z,2.88
